Home > Products > Valid Products > TAF

000
FTUS41 KILN 222300
TAFLCK
TAF
KLCK 222320Z 2300/2324 05003KT P6SM SCT250
     FM231400 15006KT P6SM SCT200=



000
FTUS41 KILN 222300
TAFCVG
TAF
KCVG 222320Z 2300/2406 26012KT P6SM FEW060 SCT250
     FM230100 34006KT P6SM SCT250
     FM230300 06003KT P6SM SCT200
     FM231400 16007KT P6SM SCT150
     FM240100 VRB02KT P6SM SCT100=



000
FTUS41 KILN 222300
TAFDAY
TAF
KDAY 222320Z 2300/2324 34010KT P6SM FEW070 SCT250
     FM230200 05005KT P6SM SCT200
     FM231400 16007KT P6SM SCT150=



000
FTUS41 KILN 222300
TAFLUK
TAF
KLUK 222320Z 2300/2324 27010KT P6SM FEW070 SCT250
     FM230200 VRB01KT P6SM SCT250
      TEMPO 2309/2311 4SM BR
     FM231400 15004KT P6SM SCT150=



000
FTUS41 KILN 222300
TAFLUK
TAF
KLUK 222320Z 2300/2324 27010KT P6SM FEW070 SCT250
     FM230200 VRB01KT P6SM SCT250
      TEMPO 2309/2311 4SM BR
     FM231400 15004KT P6SM SCT150=



000
FTUS41 KILN 222300
TAFILN
TAF
KILN 222320Z 2300/2324 34010KT P6SM FEW070 SCT250
     FM230300 05004KT P6SM SCT200
     FM231400 16007KT P6SM SCT150=



000
FTUS41 KILN 222300
TAFCVG
TAF
KCVG 222320Z 2300/2406 26012KT P6SM FEW060 SCT250
     FM230100 34006KT P6SM SCT250
     FM230300 06003KT P6SM SCT200
     FM231400 16007KT P6SM SCT150
     FM240100 VRB02KT P6SM SCT100=



000
FTUS41 KILN 222300
TAFCMH
TAF
KCMH 222320Z 2300/2324 05005KT P6SM SCT250
     FM231400 15006KT P6SM SCT200=



000
FTUS41 KILN 222300
TAFDAY
TAF
KDAY 222320Z 2300/2324 34010KT P6SM FEW070 SCT250
     FM230200 05005KT P6SM SCT200
     FM231400 16007KT P6SM SCT150=



000
FTUS41 KILN 222300
TAFCMH
TAF
KCMH 222320Z 2300/2324 05005KT P6SM SCT250
     FM231400 15006KT P6SM SCT200=



000
FTUS41 KILN 222300
TAFLCK
TAF
KLCK 222320Z 2300/2324 05003KT P6SM SCT250
     FM231400 15006KT P6SM SCT200=



000
FTUS41 KILN 222300
TAFILN
TAF
KILN 222320Z 2300/2324 34010KT P6SM FEW070 SCT250
     FM230300 05004KT P6SM SCT200
     FM231400 16007KT P6SM SCT150=



000
FTUS41 KILN 222000 AAA
TAFCVG
TAF AMD
KCVG 222056Z 2221/2324 26010G18KT P6SM SCT060
     FM230100 34006KT P6SM SCT250
     FM230300 06005KT P6SM SCT200
     FM231400 16006KT P6SM SCT150=



000
FTUS41 KILN 222000 AAA
TAFLCK
TAF AMD
KLCK 222051Z 2221/2318 32010KT P6SM VCSH SCT060
      TEMPO 2221/2222 5SM -RA
     FM230000 VRB03KT P6SM SCT250
     FM231400 15006KT P6SM SCT200=



000
FTUS41 KILN 222000 AAA
TAFCMH
TAF AMD
KCMH 222051Z 2221/2318 32010KT P6SM VCSH SCT060
      TEMPO 2221/2222 5SM -RA
     FM230000 VRB03KT P6SM SCT250
     FM231400 15006KT P6SM SCT200=



000
FTUS41 KILN 221700
TAFLUK
TAF
KLUK 221726Z 2218/2318 26010G17KT P6SM SCT060
     FM230100 VRB03KT P6SM SCT250
     FM230300 00000KT P6SM SCT200
      TEMPO 2309/2311 4SM BR
     FM231400 14004KT P6SM SCT150=



000
FTUS41 KILN 221700
TAFCVG
TAF
KCVG 221726Z 2218/2324 26010G18KT P6SM SCT060
     FM230100 34006KT P6SM SCT250
     FM230300 06005KT P6SM SCT200
     FM231400 16006KT P6SM SCT150=



000
FTUS41 KILN 221700
TAFDAY
TAF
KDAY 221726Z 2218/2318 29010G18KT P6SM SCT060
     FM222200 34008KT P6SM SCT250
     FM230200 05005KT P6SM SCT200
     FM231400 14007KT P6SM SCT150=



000
FTUS41 KILN 221700
TAFCMH
TAF
KCMH 221726Z 2218/2318 29010G16KT P6SM VCSH BKN060
     FM222000 32010KT P6SM SCT060
     FM230000 VRB03KT P6SM SCT250
     FM231400 15006KT P6SM SCT200=



000
FTUS41 KILN 221700
TAFILN
TAF
KILN 221726Z 2218/2318 27010G18KT P6SM SCT060
     FM230000 34006KT P6SM SCT250
     FM230300 06004KT P6SM SCT200
     FM231400 15005KT P6SM SCT150=



000
FTUS41 KILN 221700
TAFLCK
TAF
KLCK 221726Z 2218/2318 29010G16KT P6SM VCSH BKN060
     FM222000 32010KT P6SM SCT060
     FM230000 VRB03KT P6SM SCT250
     FM231400 15006KT P6SM SCT200=



000
FTUS41 KILN 221700
TAFDAY
TAF
KDAY 221726Z 2218/2318 29010G18KT P6SM SCT060
     FM222200 34008KT P6SM SCT250
     FM230200 05005KT P6SM SCT200
     FM231400 14007KT P6SM SCT150=



000
FTUS41 KILN 221700
TAFCMH
TAF
KCMH 221726Z 2218/2318 29010G16KT P6SM VCSH BKN060
     FM222000 32010KT P6SM SCT060
     FM230000 VRB03KT P6SM SCT250
     FM231400 15006KT P6SM SCT200=



000
FTUS41 KILN 221700
TAFLUK
TAF
KLUK 221726Z 2218/2318 26010G17KT P6SM SCT060
     FM230100 VRB03KT P6SM SCT250
     FM230300 00000KT P6SM SCT200
      TEMPO 2309/2311 4SM BR
     FM231400 14004KT P6SM SCT150=



000
FTUS41 KILN 221700
TAFILN
TAF
KILN 221726Z 2218/2318 27010G18KT P6SM SCT060
     FM230000 34006KT P6SM SCT250
     FM230300 06004KT P6SM SCT200
     FM231400 15005KT P6SM SCT150=



000
FTUS41 KILN 221700
TAFLCK
TAF
KLCK 221726Z 2218/2318 29010G16KT P6SM VCSH BKN060
     FM222000 32010KT P6SM SCT060
     FM230000 VRB03KT P6SM SCT250
     FM231400 15006KT P6SM SCT200=



000
FTUS41 KILN 221700
TAFCVG
TAF
KCVG 221726Z 2218/2324 26010G18KT P6SM SCT060
     FM230100 34006KT P6SM SCT250
     FM230300 06005KT P6SM SCT200
     FM231400 16006KT P6SM SCT150=



000
FTUS41 KILN 221500 AAA
TAFCVG
TAF AMD
KCVG 221530Z 2216/2318 25011G17KT P6SM FEW045
     FM222200 29009KT P6SM BKN050
     FM230100 35004KT P6SM SCT060 BKN200
     FM230300 06005KT P6SM BKN200=



000
FTUS41 KILN 221100
TAFLCK
TAF
KLCK 221120Z 2212/2312 21004KT P6SM SKC
     FM221400 25006KT P6SM SCT080
     FM221700 30011G16KT P6SM VCSH BKN050
     FM222200 36008KT P6SM SCT050
     FM230100 07004KT P6SM SCT200=



000
FTUS41 KILN 221100
TAFCVG
TAF
KCVG 221120Z 2212/2318 23007KT P6SM SKC
     FM221500 25011G17KT P6SM FEW045
     FM222200 29009KT P6SM BKN050
     FM230100 35004KT P6SM SCT060 BKN200
     FM230300 06005KT P6SM BKN200=



000
FTUS41 KILN 221100
TAFDAY
TAF
KDAY 221120Z 2212/2312 23009KT P6SM SKC
     FM221500 26011G16KT P6SM FEW045
     FM221900 31012G18KT P6SM BKN050
     FM222200 36008KT P6SM SCT250
     FM230300 07004KT P6SM SCT200=



000
FTUS41 KILN 221100
TAFCMH
TAF
KCMH 221120Z 2212/2312 22004KT P6SM SKC
     FM221300 26006KT P6SM SCT080
     FM221700 31011G16KT P6SM VCSH BKN050
     FM222200 36010KT P6SM SCT050
     FM230100 06005KT P6SM SCT200=



000
FTUS41 KILN 221100
TAFCVG
TAF
KCVG 221120Z 2212/2318 23007KT P6SM SKC
     FM221500 25011G17KT P6SM FEW045
     FM222200 29009KT P6SM BKN050
     FM230100 35004KT P6SM SCT060 BKN200
     FM230300 06005KT P6SM BKN200=



000
FTUS41 KILN 221100
TAFLCK
TAF
KLCK 221120Z 2212/2312 21004KT P6SM SKC
     FM221400 25006KT P6SM SCT080
     FM221700 30011G16KT P6SM VCSH BKN050
     FM222200 36008KT P6SM SCT050
     FM230100 07004KT P6SM SCT200=



000
FTUS41 KILN 221100
TAFCMH
TAF
KCMH 221120Z 2212/2312 22004KT P6SM SKC
     FM221300 26006KT P6SM SCT080
     FM221700 31011G16KT P6SM VCSH BKN050
     FM222200 36010KT P6SM SCT050
     FM230100 06005KT P6SM SCT200=



000
FTUS41 KILN 221100
TAFLUK
TAF
KLUK 221120Z 2212/2312 22006KT P6SM SKC
     FM221500 24010G16KT P6SM FEW045
     FM222200 29008KT P6SM BKN050
     FM230100 35003KT P6SM SCT060 BKN200
     FM230300 06003KT P6SM BKN200=



000
FTUS41 KILN 221100
TAFILN
TAF
KILN 221120Z 2212/2312 22009KT P6SM SKC
     FM221400 25011G16KT P6SM FEW045
     FM222000 31012G18KT P6SM BKN050
     FM222200 34008KT P6SM BKN045
     FM230100 05004KT P6SM SCT200=



000
FTUS41 KILN 221100
TAFILN
TAF
KILN 221120Z 2212/2312 22009KT P6SM SKC
     FM221400 25011G16KT P6SM FEW045
     FM222000 31012G18KT P6SM BKN050
     FM222200 34008KT P6SM BKN045
     FM230100 05004KT P6SM SCT200=



000
FTUS41 KILN 221100
TAFLUK
TAF
KLUK 221120Z 2212/2312 22006KT P6SM SKC
     FM221500 24010G16KT P6SM FEW045
     FM222200 29008KT P6SM BKN050
     FM230100 35003KT P6SM SCT060 BKN200
     FM230300 06003KT P6SM BKN200=



000
FTUS41 KILN 221100
TAFDAY
TAF
KDAY 221120Z 2212/2312 23009KT P6SM SKC
     FM221500 26011G16KT P6SM FEW045
     FM221900 31012G18KT P6SM BKN050
     FM222200 36008KT P6SM SCT250
     FM230300 07004KT P6SM SCT200=



000
FTUS41 KILN 220900 AAA
TAFCVG
TAF AMD
KCVG 220907Z 2209/2312 22007KT P6SM SKC
     FM221400 24010G16KT P6SM SCT050
     FM222200 31007KT P6SM SCT050
     FM230100 VRB04KT P6SM SCT200
     FM230300 06006KT P6SM SCT150=



000
FTUS41 KILN 220500 RRA
TAFCMH
TAF
KCMH 220547Z 2206/2306 22004KT P6SM SKC
     FM221300 26009KT P6SM SCT040
     FM221900 33011G16KT P6SM SCT050 SCT250
     FM230100 05005KT P6SM SKC=



000
FTUS41 KILN 220500 RRA
TAFLUK
TAF
KLUK 220547Z 2206/2306 VRB03KT P6SM SKC
      TEMPO 2209/2211 4SM BR
     FM221500 25008KT P6SM SCT050
     FM222200 31008KT P6SM SCT050 SCT250
     FM230100 04004KT P6SM SCT150=



000
FTUS41 KILN 220500 RRA
TAFLCK
TAF
KLCK 220547Z 2206/2306 22005KT P6SM SKC
     FM221300 27010KT P6SM SCT040
     FM221900 32011G16KT P6SM SCT050 SCT250
     FM230100 05006KT P6SM SKC=



000
FTUS41 KILN 220500 RRA
TAFDAY
TAF
KDAY 220547Z 2206/2306 23007KT P6SM SKC
     FM221300 26010G16KT P6SM SCT040
     FM221900 33010KT P6SM SCT050 SCT250
     FM230100 05005KT P6SM SKC=



000
FTUS41 KILN 220500 RRA
TAFILN
TAF
KILN 220547Z 2206/2306 23006KT P6SM SKC
     FM221400 25010G16KT P6SM SCT040
     FM222200 31010KT P6SM SCT050 SCT250
     FM230100 04005KT P6SM SCT200=



000
FTUS41 KILN 220500 RRA
TAFCVG
TAF
KCVG 220547Z 2206/2312 22004KT P6SM SKC
     FM221500 25010G16KT P6SM SCT040
     FM222200 31010KT P6SM SCT050
     FM230100 VRB04KT P6SM SCT200
     FM230300 05006KT P6SM SCT150=



000
FTUS41 KILN 220500 RRA
TAFCMH
TAF
KCMH 220547Z 2206/2306 22004KT P6SM SKC
     FM221300 26009KT P6SM SCT040
     FM221900 33011G16KT P6SM SCT050 SCT250
     FM230100 05005KT P6SM SKC=



000
FTUS41 KILN 220500 RRA
TAFCVG
TAF
KCVG 220547Z 2206/2312 22004KT P6SM SKC
     FM221500 25010G16KT P6SM SCT040
     FM222200 31010KT P6SM SCT050
     FM230100 VRB04KT P6SM SCT200
     FM230300 05006KT P6SM SCT150=



000
FTUS41 KILN 220500 RRA
TAFILN
TAF
KILN 220547Z 2206/2306 23006KT P6SM SKC
     FM221400 25010G16KT P6SM SCT040
     FM222200 31010KT P6SM SCT050 SCT250
     FM230100 04005KT P6SM SCT200=



000
FTUS41 KILN 220500 RRA
TAFLUK
TAF
KLUK 220547Z 2206/2306 VRB03KT P6SM SKC
      TEMPO 2209/2211 4SM BR
     FM221500 25008KT P6SM SCT050
     FM222200 31008KT P6SM SCT050 SCT250
     FM230100 04004KT P6SM SCT150=



000
FTUS41 KILN 220500 RRA
TAFDAY
TAF
KDAY 220547Z 2206/2306 23007KT P6SM SKC
     FM221300 26010G16KT P6SM SCT040
     FM221900 33010KT P6SM SCT050 SCT250
     FM230100 05005KT P6SM SKC=



000
FTUS41 KILN 220500 RRA
TAFLCK
TAF
KLCK 220547Z 2206/2306 22005KT P6SM SKC
     FM221300 27010KT P6SM SCT040
     FM221900 32011G16KT P6SM SCT050 SCT250
     FM230100 05006KT P6SM SKC=



000
FTUS41 KILN 212300
TAFCVG
TAF
KCVG 212320Z 2200/2306 29008KT P6SM SCT040
     FM220500 25004KT P6SM SKC
     FM221500 28010KT P6SM SCT040
     FM222200 31010KT P6SM SCT050
     FM230100 VRB04KT P6SM SCT250=



000
FTUS41 KILN 212300
TAFCMH
TAF
KCMH 212320Z 2200/2224 29008KT P6SM FEW040
     FM220400 24004KT P6SM SKC
     FM221300 29008KT P6SM SCT040
     FM221900 33010KT P6SM SCT050 SCT250=



000
FTUS41 KILN 212300
TAFILN
TAF
KILN 212320Z 2200/2224 29008KT P6SM SCT040
     FM220400 24005KT P6SM SKC
     FM221400 27008KT P6SM SCT040
     FM222100 31010KT P6SM SCT050 SCT250=



000
FTUS41 KILN 212300
TAFLUK
TAF
KLUK 212320Z 2200/2224 29006KT P6SM SCT040
     FM220500 VRB03KT P6SM SKC
     FM221500 27008KT P6SM SCT050
     FM222200 31008KT P6SM SCT050 SCT250=



000
FTUS41 KILN 212300
TAFDAY
TAF
KDAY 212320Z 2200/2224 28011KT P6SM FEW040
     FM220300 24006KT P6SM SKC
     FM221300 26009KT P6SM SCT040
     FM221900 33010KT P6SM SCT050 SCT250=



000
FTUS41 KILN 212300
TAFLCK
TAF
KLCK 212320Z 2200/2224 29008KT P6SM FEW040
     FM220400 24004KT P6SM SKC
     FM221300 29008KT P6SM SCT040
     FM221900 33010KT P6SM SCT050 SCT250=



000
FTUS41 KILN 212300
TAFCVG
TAF
KCVG 212320Z 2200/2306 29008KT P6SM SCT040
     FM220500 25004KT P6SM SKC
     FM221500 28010KT P6SM SCT040
     FM222200 31010KT P6SM SCT050
     FM230100 VRB04KT P6SM SCT250=



000
FTUS41 KILN 212300
TAFDAY
TAF
KDAY 212320Z 2200/2224 28011KT P6SM FEW040
     FM220300 24006KT P6SM SKC
     FM221300 26009KT P6SM SCT040
     FM221900 33010KT P6SM SCT050 SCT250=



000
FTUS41 KILN 212300
TAFILN
TAF
KILN 212320Z 2200/2224 29008KT P6SM SCT040
     FM220400 24005KT P6SM SKC
     FM221400 27008KT P6SM SCT040
     FM222100 31010KT P6SM SCT050 SCT250=



000
FTUS41 KILN 212300
TAFCMH
TAF
KCMH 212320Z 2200/2224 29008KT P6SM FEW040
     FM220400 24004KT P6SM SKC
     FM221300 29008KT P6SM SCT040
     FM221900 33010KT P6SM SCT050 SCT250=



000
FTUS41 KILN 212300
TAFLUK
TAF
KLUK 212320Z 2200/2224 29006KT P6SM SCT040
     FM220500 VRB03KT P6SM SKC
     FM221500 27008KT P6SM SCT050
     FM222200 31008KT P6SM SCT050 SCT250=



000
FTUS41 KILN 212300
TAFLCK
TAF
KLCK 212320Z 2200/2224 29008KT P6SM FEW040
     FM220400 24004KT P6SM SKC
     FM221300 29008KT P6SM SCT040
     FM221900 33010KT P6SM SCT050 SCT250=



000
FTUS41 KILN 212000 AAA
TAFCVG
TAF AMD
KCVG 212055Z 2121/2224 31010KT P6SM OVC035
     FM220000 29008KT P6SM SCT040
     FM220500 24004KT P6SM SKC
     FM221500 28010KT P6SM SCT040=



000
FTUS41 KILN 212000 AAA
TAFCVG
TAF AMD
KCVG 212055Z 2121/2224 31010KT P6SM OVC035
     FM220000 29008KT P6SM SCT040
     FM220500 24004KT P6SM SKC
     FM221500 28010KT P6SM SCT040=



000
FTUS41 KILN 211800 AAA
TAFILN
TAF AMD
KILN 211805Z 2118/2218 32010KT P6SM OVC040
      TEMPO 2119/2121 -RA
     FM220000 29008KT P6SM SCT040
     FM220400 24005KT P6SM SKC
     FM221400 28008KT P6SM SCT040=



000
FTUS41 KILN 211800 AAA
TAFILN
TAF AMD
KILN 211805Z 2118/2218 32010KT P6SM OVC040
      TEMPO 2119/2121 -RA
     FM220000 29008KT P6SM SCT040
     FM220400 24005KT P6SM SKC
     FM221400 28008KT P6SM SCT040=



000
FTUS41 KILN 211800 AAA
TAFDAY
TAF AMD
KDAY 211804Z 2118/2218 32012KT P6SM OVC040
      TEMPO 2118/2119 -RA
     FM212300 28008KT P6SM SCT040
     FM220300 24006KT P6SM SKC
     FM221300 29008KT P6SM SCT040=



000
FTUS41 KILN 211800 AAA
TAFDAY
TAF AMD
KDAY 211804Z 2118/2218 32012KT P6SM OVC040
      TEMPO 2118/2119 -RA
     FM212300 28008KT P6SM SCT040
     FM220300 24006KT P6SM SKC
     FM221300 29008KT P6SM SCT040=



000
FTUS41 KILN 211700
TAFLCK
TAF
KLCK 211726Z 2118/2218 35008KT P6SM OVC050
     FM212300 29008KT P6SM SCT040
     FM220400 24004KT P6SM SKC
     FM221300 29008KT P6SM SCT040=



000
FTUS41 KILN 211700
TAFDAY
TAF
KDAY 211726Z 2118/2218 32012KT P6SM OVC040
     FM212300 28008KT P6SM SCT040
     FM220300 24006KT P6SM SKC
     FM221300 29008KT P6SM SCT040=



000
FTUS41 KILN 211700
TAFILN
TAF
KILN 211726Z 2118/2218 32010KT P6SM OVC040
     FM220000 29008KT P6SM SCT040
     FM220400 24005KT P6SM SKC
     FM221400 28008KT P6SM SCT040=



000
FTUS41 KILN 211700
TAFCMH
TAF
KCMH 211726Z 2118/2218 35008KT P6SM OVC050
     FM212300 29008KT P6SM SCT040
     FM220400 24004KT P6SM SKC
     FM221300 29008KT P6SM SCT040=



000
FTUS41 KILN 211700
TAFCVG
TAF
KCVG 211726Z 2118/2224 31010KT P6SM OVC035
      TEMPO 2118/2119 BKN025
     FM220000 29008KT P6SM SCT040
     FM220500 24004KT P6SM SKC
     FM221500 28010KT P6SM SCT040=



000
FTUS41 KILN 211700
TAFLUK
TAF
KLUK 211726Z 2118/2218 30009KT P6SM OVC035
     FM220000 29006KT P6SM SCT040
     FM220500 VRB03KT P6SM SKC
     FM221500 28008KT P6SM SCT040=



000
FTUS41 KILN 211600 AAA
TAFILN
TAF AMD
KILN 211618Z 2116/2212 36008KT P6SM OVC028
      TEMPO 2116/2118 BKN015
     FM211800 36008KT P6SM BKN035
     FM220100 32012KT P6SM SCT040
     FM220600 28005KT P6SM FEW040=



000
FTUS41 KILN 211600 AAA
TAFLCK
TAF AMD
KLCK 211617Z 2116/2212 36008KT P6SM OVC040
      TEMPO 2116/2118 BKN025
     FM220000 33010KT P6SM SCT040
     FM220600 25007KT P6SM FEW040=



000
FTUS41 KILN 211600 AAA
TAFLCK
TAF AMD
KLCK 211617Z 2116/2212 36008KT P6SM OVC040
      TEMPO 2116/2118 BKN025
     FM220000 33010KT P6SM SCT040
     FM220600 25007KT P6SM FEW040=



000
FTUS41 KILN 211600 AAA
TAFCMH
TAF AMD
KCMH 211616Z 2116/2212 01008KT P6SM OVC050
      TEMPO 2116/2118 BKN025
     FM220000 33010KT P6SM SCT040
     FM220600 28006KT P6SM FEW040=



000
FTUS41 KILN 211600 AAA
TAFCMH
TAF AMD
KCMH 211616Z 2116/2212 01008KT P6SM OVC050
      TEMPO 2116/2118 BKN025
     FM220000 33010KT P6SM SCT040
     FM220600 28006KT P6SM FEW040=



000
FTUS41 KILN 211600 AAA
TAFLUK
TAF AMD
KLUK 211615Z 2116/2212 36008KT P6SM OVC035
      TEMPO 2116/2118 BKN020
     FM211800 33008KT P6SM BKN035
     FM212200 32010KT P6SM SCT045
     FM220500 26004KT P6SM FEW040=



000
FTUS41 KILN 211600 AAB
TAFCVG
TAF AMD
KCVG 211613Z 2116/2218 33008KT P6SM OVC025
      TEMPO 2116/2118 BKN015
     FM211800 33008KT P6SM BKN035
     FM212200 31010KT P6SM SCT040
     FM220500 25004KT P6SM FEW040=



000
FTUS41 KILN 211600 AAB
TAFCVG
TAF AMD
KCVG 211613Z 2116/2218 33008KT P6SM OVC025
      TEMPO 2116/2118 BKN015
     FM211800 33008KT P6SM BKN035
     FM212200 31010KT P6SM SCT040
     FM220500 25004KT P6SM FEW040=



000
FTUS41 KILN 211400 AAA
TAFCVG
TAF AMD
KCVG 211405Z 2114/2218 35008KT P6SM OVC050
      TEMPO 2114/2116 BKN025
     FM211700 33008KT P6SM BKN035
     FM212200 31010KT P6SM SCT040
     FM220500 25004KT P6SM FEW040=



000
FTUS41 KILN 211200 AAA
TAFILN
TAF AMD
KILN 211254Z 2113/2212 02008KT P6SM OVC028
      TEMPO 2113/2115 BKN012
     FM211600 36008KT P6SM BKN035
     FM220100 32012KT P6SM SCT040
     FM220600 28005KT P6SM FEW040=



000
FTUS41 KILN 211200 AAA
TAFILN
TAF AMD
KILN 211254Z 2113/2212 02008KT P6SM OVC028
      TEMPO 2113/2115 BKN012
     FM211600 36008KT P6SM BKN035
     FM220100 32012KT P6SM SCT040
     FM220600 28005KT P6SM FEW040=



000
FTUS41 KILN 211100
TAFCVG
TAF
KCVG 211137Z 2112/2218 01008KT P6SM BKN015 OVC030
     FM211500 35008KT P6SM BKN025
     FM211700 33008KT P6SM BKN035
     FM212200 31010KT P6SM SCT040
     FM220500 25004KT P6SM FEW040=



000
FTUS41 KILN 211100
TAFCMH
TAF
KCMH 211137Z 2112/2212 02007KT P6SM OVC040
      TEMPO 2112/2115 BKN015
     FM211500 01008KT P6SM BKN015 OVC035
     FM220000 33010KT P6SM SCT040
     FM220600 28006KT P6SM FEW040=



000
FTUS41 KILN 211100
TAFILN
TAF
KILN 211137Z 2112/2212 02008KT P6SM OVC028
     FM211600 36008KT P6SM BKN035
     FM220100 32012KT P6SM SCT040
     FM220600 28005KT P6SM FEW040=



000
FTUS41 KILN 211100
TAFDAY
TAF
KDAY 211137Z 2112/2212 34008KT P6SM OVC035
      TEMPO 2112/2115 BKN015
     FM211600 35008KT P6SM BKN035
     FM212300 30012KT P6SM SCT040
     FM220500 27005KT P6SM FEW040=



000
FTUS41 KILN 211100
TAFLCK
TAF
KLCK 211137Z 2112/2212 03007KT P6SM OVC040
      TEMPO 2112/2115 BKN015
     FM211500 01008KT P6SM BKN015 BKN035
     FM220000 33010KT P6SM SCT040
     FM220600 25007KT P6SM FEW040=



000
FTUS41 KILN 211100
TAFLUK
TAF
KLUK 211137Z 2112/2212 02007KT P6SM BKN022 OVC040
     FM211500 36006KT P6SM OVC025
     FM211700 33008KT P6SM BKN035
     FM212200 32010KT P6SM SCT045
     FM220500 26004KT P6SM FEW040=



000
FTUS41 KILN 211100
TAFCMH
TAF
KCMH 211137Z 2112/2212 02007KT P6SM OVC040
      TEMPO 2112/2115 BKN015
     FM211500 01008KT P6SM BKN015 OVC035
     FM220000 33010KT P6SM SCT040
     FM220600 28006KT P6SM FEW040=



000
FTUS41 KILN 211100
TAFILN
TAF
KILN 211137Z 2112/2212 02008KT P6SM OVC028
     FM211600 36008KT P6SM BKN035
     FM220100 32012KT P6SM SCT040
     FM220600 28005KT P6SM FEW040=



000
FTUS41 KILN 211100
TAFLCK
TAF
KLCK 211137Z 2112/2212 03007KT P6SM OVC040
      TEMPO 2112/2115 BKN015
     FM211500 01008KT P6SM BKN015 BKN035
     FM220000 33010KT P6SM SCT040
     FM220600 25007KT P6SM FEW040=



000
FTUS41 KILN 211100
TAFLUK
TAF
KLUK 211137Z 2112/2212 02007KT P6SM BKN022 OVC040
     FM211500 36006KT P6SM OVC025
     FM211700 33008KT P6SM BKN035
     FM212200 32010KT P6SM SCT045
     FM220500 26004KT P6SM FEW040=



000
FTUS41 KILN 211100
TAFDAY
TAF
KDAY 211137Z 2112/2212 34008KT P6SM OVC035
      TEMPO 2112/2115 BKN015
     FM211600 35008KT P6SM BKN035
     FM212300 30012KT P6SM SCT040
     FM220500 27005KT P6SM FEW040=



000
FTUS41 KILN 211100
TAFCVG
TAF
KCVG 211137Z 2112/2218 01008KT P6SM BKN015 OVC030
     FM211500 35008KT P6SM BKN025
     FM211700 33008KT P6SM BKN035
     FM212200 31010KT P6SM SCT040
     FM220500 25004KT P6SM FEW040=



000
FTUS41 KILN 211000 AAB
TAFDAY
TAF AMD
KDAY 211016Z 2110/2206 01008KT P6SM SCT030 BKN040
     FM211200 02006KT P6SM SCT010 BKN025
     FM211500 02006KT P6SM OVC030
     FM211700 35008KT P6SM BKN035
     FM212200 30012KT P6SM SCT040=



000
FTUS41 KILN 211000 AAB
TAFDAY
TAF AMD
KDAY 211016Z 2110/2206 01008KT P6SM SCT030 BKN040
     FM211200 02006KT P6SM SCT010 BKN025
     FM211500 02006KT P6SM OVC030
     FM211700 35008KT P6SM BKN035
     FM212200 30012KT P6SM SCT040=



000
FTUS41 KILN 211000 AAC
TAFLUK
TAF AMD
KLUK 211015Z 2110/2206 02007KT P6SM BKN025 OVC040
     FM211300 02005KT P6SM SCT010 BKN015
     FM211500 36006KT P6SM OVC025
     FM211700 33008KT P6SM BKN035
     FM212000 32010KT P6SM SCT045
     FM220500 28004KT P6SM FEW040=



000
FTUS41 KILN 211000 AAC
TAFLUK
TAF AMD
KLUK 211015Z 2110/2206 02007KT P6SM BKN025 OVC040
     FM211300 02005KT P6SM SCT010 BKN015
     FM211500 36006KT P6SM OVC025
     FM211700 33008KT P6SM BKN035
     FM212000 32010KT P6SM SCT045
     FM220500 28004KT P6SM FEW040=



000
FTUS41 KILN 211000 AAB
TAFILN
TAF AMD
KILN 211012Z 2110/2206 02008KT P6SM BKN025 OVC035
     FM211200 03007KT 5SM BR FEW010 BKN015
     FM211400 36008KT P6SM BKN035
     FM212300 32012KT P6SM SCT040=



000
FTUS41 KILN 211000 AAB
TAFCVG
TAF AMD
KCVG 211011Z 2110/2212 02007KT P6SM OVC035
     FM211100 36007KT P6SM BKN015 OVC030
     FM211300 01008KT P6SM OVC020
     FM211500 35008KT P6SM BKN035
     FM212200 31010KT P6SM SCT040
     FM220500 28004KT P6SM FEW040=



000
FTUS41 KILN 211000 AAA
TAFILN
TAF AMD
KILN 211001Z 2110/2206 02008KT P6SM SCT015 OVC035
     FM211100 03007KT 5SM BR FEW008 BKN015
     FM211400 36008KT P6SM BKN035
     FM212200 32012KT P6SM SCT040=



000
FTUS41 KILN 210900 AAA
TAFLCK
TAF AMD
KLCK 210942Z 2110/2206 02007KT P6SM BKN030 OVC045
     FM211500 01008KT P6SM BKN035
     FM212200 33010KT P6SM SCT040=



000
FTUS41 KILN 210900 AAB
TAFLUK
TAF AMD
KLUK 210932Z 2110/2206 02007KT P6SM SCT020 OVC040
     FM211000 02005KT P6SM SCT008 BKN015
     FM211200 36006KT P6SM OVC025
     FM211500 33008KT P6SM BKN035
     FM212000 32010KT P6SM SCT045
     FM220500 28004KT P6SM FEW040=



000
FTUS41 KILN 210800 AAA
TAFDAY
TAF AMD
KDAY 210800Z 2108/2206 01008KT P6SM OVC060
     FM211000 02006KT P6SM SCT008 BKN015
     FM211300 02006KT P6SM OVC030
     FM211500 35008KT P6SM BKN035
     FM212000 30012KT P6SM SCT040=



000
FTUS41 KILN 210700 AAA
TAFILN
TAF AMD
KILN 210747Z 2108/2206 04008KT P6SM -RA BKN080
     FM211000 02008KT P6SM SCT010 OVC015
     FM211400 36008KT P6SM BKN035
     FM212100 32012KT P6SM SCT040=



000
FTUS41 KILN 210700 AAA
TAFCVG
TAF AMD
KCVG 210737Z 2108/2212 03008KT P6SM BKN040
     FM211000 02007KT P6SM SCT008 BKN015
     FM211300 01008KT P6SM OVC020
     FM211500 35008KT P6SM BKN035
     FM212000 31010KT P6SM SCT040
     FM220500 28004KT P6SM FEW040=



000
FTUS41 KILN 210700 AAA
TAFLUK
TAF AMD
KLUK 210737Z 2108/2206 01005KT P6SM -RA BKN040
     FM211000 02005KT P6SM SCT008 BKN015
     FM211200 36006KT P6SM OVC025
     FM211500 33008KT P6SM BKN035
     FM212000 32010KT P6SM SCT045
     FM220500 28004KT P6SM FEW040=



000
FTUS41 KILN 210700 AAA
TAFLUK
TAF AMD
KLUK 210737Z 2108/2206 01005KT P6SM -RA BKN040
     FM211000 02005KT P6SM SCT008 BKN015
     FM211200 36006KT P6SM OVC025
     FM211500 33008KT P6SM BKN035
     FM212000 32010KT P6SM SCT045
     FM220500 28004KT P6SM FEW040=



000
FTUS41 KILN 210600 CCA
TAFDAY
TAF COR
KDAY 210600Z 2106/2206 01008KT P6SM OVC060
     FM210800 02006KT P6SM SCT008 BKN015
     FM211100 02006KT P6SM OVC030
     FM211400 35008KT P6SM BKN035
     FM212000 30012KT P6SM SCT040=



000
FTUS41 KILN 210600 CCA
TAFDAY
TAF COR
KDAY 210600Z 2106/2206 01008KT P6SM OVC060
     FM210800 02006KT P6SM SCT008 BKN015
     FM211100 02006KT P6SM OVC030
     FM211400 35008KT P6SM BKN035
     FM212000 30012KT P6SM SCT040=



000
FTUS41 KILN 210500 CCA
TAFCVG
TAF COR
KCVG 210559Z 2106/2212 03008KT P6SM BKN040
     FM210800 02007KT P6SM SCT008 BKN015
     FM211000 01008KT P6SM OVC020
     FM211400 35008KT P6SM BKN035
     FM212000 31010KT P6SM SCT040
     FM220500 28004KT P6SM FEW040=



000
FTUS41 KILN 210500 CCA
TAFLUK
TAF COR
KLUK 210559Z 2106/2206 01005KT P6SM -RA BKN040
     FM210800 02005KT P6SM SCT008 BKN015
     FM211000 36006KT P6SM OVC025
     FM211400 33008KT P6SM BKN035
     FM212000 32010KT P6SM SCT045
     FM220500 28004KT P6SM FEW040=



000
FTUS41 KILN 210500 CCA
TAFCVG
TAF COR
KCVG 210559Z 2106/2212 03008KT P6SM BKN040
     FM210800 02007KT P6SM SCT008 BKN015
     FM211000 01008KT P6SM OVC020
     FM211400 35008KT P6SM BKN035
     FM212000 31010KT P6SM SCT040
     FM220500 28004KT P6SM FEW040=



000
FTUS41 KILN 210500 CCA
TAFLUK
TAF COR
KLUK 210559Z 2106/2206 01005KT P6SM -RA BKN040
     FM210800 02005KT P6SM SCT008 BKN015
     FM211000 36006KT P6SM OVC025
     FM211400 33008KT P6SM BKN035
     FM212000 32010KT P6SM SCT045
     FM220500 28004KT P6SM FEW040=



000
FTUS41 KILN 210500 RRA
TAFCMH
TAF
KCMH 210542Z 2106/2206 03008KT P6SM -RA BKN080
     FM211000 02007KT P6SM OVC035
     FM211500 01008KT P6SM BKN035
     FM212200 33010KT P6SM SCT040=



000
FTUS41 KILN 210500 RRA
TAFDAY
TAF
KDAY 210542Z 2106/2206 01008KT P6SM OVC060
     FM210900 02006KT P6SM OVC035
     FM211400 35008KT P6SM BKN035
     FM212000 30012KT P6SM SCT040=



000
FTUS41 KILN 210500 RRA
TAFLCK
TAF
KLCK 210542Z 2106/2206 03008KT P6SM -RA BKN080
     FM211000 02007KT P6SM OVC035
     FM211500 01008KT P6SM BKN035
     FM212200 33010KT P6SM SCT040=



000
FTUS41 KILN 210500 RRA
TAFLUK
TAF
KLUK 210542Z 2106/2206 01005KT P6SM BKN060
     FM211000 36006KT P6SM OVC028
     FM211400 33008KT P6SM BKN035
     FM212000 32010KT P6SM SCT045
     FM220500 28004KT P6SM FEW040=



000
FTUS41 KILN 210500 RRA
TAFILN
TAF
KILN 210542Z 2106/2206 04008KT P6SM -RA BKN080
     FM211000 02008KT P6SM VCSH OVC035
     FM211400 36008KT P6SM BKN035
     FM212100 32012KT P6SM SCT040=



000
FTUS41 KILN 210500 RRA
TAFCVG
TAF
KCVG 210542Z 2106/2212 03008KT P6SM BKN060
     FM211000 01008KT P6SM OVC025
     FM211400 35008KT P6SM BKN035
     FM212000 31010KT P6SM SCT040
     FM220500 28004KT P6SM FEW040=



000
FTUS41 KILN 210500 RRA
TAFCVG
TAF
KCVG 210542Z 2106/2212 03008KT P6SM BKN060
     FM211000 01008KT P6SM OVC025
     FM211400 35008KT P6SM BKN035
     FM212000 31010KT P6SM SCT040
     FM220500 28004KT P6SM FEW040=



000
FTUS41 KILN 210500 RRA
TAFDAY
TAF
KDAY 210542Z 2106/2206 01008KT P6SM OVC060
     FM210900 02006KT P6SM OVC035
     FM211400 35008KT P6SM BKN035
     FM212000 30012KT P6SM SCT040=



000
FTUS41 KILN 210500 RRA
TAFLUK
TAF
KLUK 210542Z 2106/2206 01005KT P6SM BKN060
     FM211000 36006KT P6SM OVC028
     FM211400 33008KT P6SM BKN035
     FM212000 32010KT P6SM SCT045
     FM220500 28004KT P6SM FEW040=



000
FTUS41 KILN 210500 RRA
TAFILN
TAF
KILN 210542Z 2106/2206 04008KT P6SM -RA BKN080
     FM211000 02008KT P6SM VCSH OVC035
     FM211400 36008KT P6SM BKN035
     FM212100 32012KT P6SM SCT040=



000
FTUS41 KILN 210500 RRA
TAFLCK
TAF
KLCK 210542Z 2106/2206 03008KT P6SM -RA BKN080
     FM211000 02007KT P6SM OVC035
     FM211500 01008KT P6SM BKN035
     FM212200 33010KT P6SM SCT040=



000
FTUS41 KILN 210500 RRA
TAFCMH
TAF
KCMH 210542Z 2106/2206 03008KT P6SM -RA BKN080
     FM211000 02007KT P6SM OVC035
     FM211500 01008KT P6SM BKN035
     FM212200 33010KT P6SM SCT040=



000
FTUS41 KILN 202300
TAFILN
TAF
KILN 202320Z 2100/2124 04008KT P6SM -RA BKN080
     FM211000 02008KT P6SM VCSH OVC035
     FM211400 36008KT P6SM BKN035
     FM211800 32012KT P6SM SCT040=



000
FTUS41 KILN 202300
TAFLUK
TAF
KLUK 202320Z 2100/2124 05005KT P6SM -RA BKN060
     FM211100 01006KT P6SM OVC028
     FM211400 36008KT P6SM BKN035
     FM211800 32010KT P6SM SCT045=



000
FTUS41 KILN 202300
TAFCMH
TAF
KCMH 202320Z 2100/2124 03008KT P6SM -RA BKN080
     FM211000 02007KT P6SM -RA OVC035
     FM211300 01008KT P6SM BKN035
     FM211800 33010KT P6SM SCT040=



000
FTUS41 KILN 202300
TAFCVG
TAF
KCVG 202320Z 2100/2206 03008KT P6SM -RA BKN060
     FM211100 01008KT P6SM OVC025
     FM211400 36008KT P6SM BKN035
     FM211800 32010KT P6SM SCT040
     FM220300 29004KT P6SM FEW040=



000
FTUS41 KILN 202300
TAFILN
TAF
KILN 202320Z 2100/2124 04008KT P6SM -RA BKN080
     FM211000 02008KT P6SM VCSH OVC035
     FM211400 36008KT P6SM BKN035
     FM211800 32012KT P6SM SCT040=



000
FTUS41 KILN 202300
TAFCVG
TAF
KCVG 202320Z 2100/2206 03008KT P6SM -RA BKN060
     FM211100 01008KT P6SM OVC025
     FM211400 36008KT P6SM BKN035
     FM211800 32010KT P6SM SCT040
     FM220300 29004KT P6SM FEW040=



000
FTUS41 KILN 202300
TAFLCK
TAF
KLCK 202320Z 2100/2124 03008KT P6SM -RA BKN080
     FM211000 02007KT P6SM -RA OVC035
     FM211300 01008KT P6SM BKN035
     FM211800 33010KT P6SM SCT040=



000
FTUS41 KILN 202300
TAFLUK
TAF
KLUK 202320Z 2100/2124 05005KT P6SM -RA BKN060
     FM211100 01006KT P6SM OVC028
     FM211400 36008KT P6SM BKN035
     FM211800 32010KT P6SM SCT045=



000
FTUS41 KILN 202300
TAFCMH
TAF
KCMH 202320Z 2100/2124 03008KT P6SM -RA BKN080
     FM211000 02007KT P6SM -RA OVC035
     FM211300 01008KT P6SM BKN035
     FM211800 33010KT P6SM SCT040=



000
FTUS41 KILN 202300
TAFDAY
TAF
KDAY 202320Z 2100/2124 04008KT P6SM -RA OVC060
     FM211100 02006KT P6SM OVC035
     FM211400 36008KT P6SM BKN035
     FM211800 32012KT P6SM SCT040=



000
FTUS41 KILN 202300
TAFLCK
TAF
KLCK 202320Z 2100/2124 03008KT P6SM -RA BKN080
     FM211000 02007KT P6SM -RA OVC035
     FM211300 01008KT P6SM BKN035
     FM211800 33010KT P6SM SCT040=



000
FTUS41 KILN 202300
TAFDAY
TAF
KDAY 202320Z 2100/2124 04008KT P6SM -RA OVC060
     FM211100 02006KT P6SM OVC035
     FM211400 36008KT P6SM BKN035
     FM211800 32012KT P6SM SCT040=



000
FTUS41 KILN 202200 AAA
TAFLUK
TAF AMD
KLUK 202224Z 2022/2118 05005KT P6SM VCSH BKN120
     FM210100 05006KT P6SM VCSH BKN040
     FM210600 02006KT P6SM VCSH OVC025
     FM211400 35008KT P6SM BKN035=



000
FTUS41 KILN 202200 AAA
TAFLUK
TAF AMD
KLUK 202224Z 2022/2118 05005KT P6SM VCSH BKN120
     FM210100 05006KT P6SM VCSH BKN040
     FM210600 02006KT P6SM VCSH OVC025
     FM211400 35008KT P6SM BKN035=



000
FTUS41 KILN 202000 AAA
TAFCVG
TAF AMD
KCVG 202054Z 2021/2124 05007KT P6SM BKN120
     FM202300 05008KT P6SM VCSH BKN040
     FM210600 02008KT P6SM VCSH OVC022
     FM211400 35008KT P6SM BKN035=



000
FTUS41 KILN 201700
TAFCMH
TAF
KCMH 201730Z 2018/2118 03008KT P6SM SCT040 BKN120
     FM210100 04008KT P6SM VCSH OVC060
     FM210600 02007KT P6SM VCSH OVC035
     FM211400 01008KT P6SM BKN035=



000
FTUS41 KILN 201700
TAFILN
TAF
KILN 201730Z 2018/2118 04008KT P6SM BKN120
     FM210100 04008KT P6SM VCSH OVC050
     FM210500 02008KT P6SM VCSH OVC028
     FM211400 01008KT P6SM BKN035=



000
FTUS41 KILN 201700
TAFLCK
TAF
KLCK 201730Z 2018/2118 03008KT P6SM SCT040 BKN120
     FM210100 04008KT P6SM VCSH OVC060
     FM210600 02007KT P6SM VCSH OVC035
     FM211400 01008KT P6SM BKN035=



000
FTUS41 KILN 201700
TAFCVG
TAF
KCVG 201730Z 2018/2124 05007KT P6SM BKN120
     FM210100 05008KT P6SM VCSH BKN040
     FM210600 02008KT P6SM VCSH OVC022
     FM211400 35008KT P6SM BKN035=



000
FTUS41 KILN 201700
TAFLUK
TAF
KLUK 201730Z 2018/2118 05005KT P6SM BKN120
     FM210100 05006KT P6SM VCSH BKN040
     FM210600 02006KT P6SM VCSH OVC025
     FM211400 35008KT P6SM BKN035=



000
FTUS41 KILN 201700
TAFLUK
TAF
KLUK 201730Z 2018/2118 05005KT P6SM BKN120
     FM210100 05006KT P6SM VCSH BKN040
     FM210600 02006KT P6SM VCSH OVC025
     FM211400 35008KT P6SM BKN035=



000
FTUS41 KILN 201700
TAFCVG
TAF
KCVG 201730Z 2018/2124 05007KT P6SM BKN120
     FM210100 05008KT P6SM VCSH BKN040
     FM210600 02008KT P6SM VCSH OVC022
     FM211400 35008KT P6SM BKN035=



000
FTUS41 KILN 201700
TAFDAY
TAF
KDAY 201730Z 2018/2118 01006KT P6SM BKN120
     FM202300 04008KT P6SM VCSH OVC050
     FM210300 02008KT P6SM VCSH OVC030
     FM211400 36008KT P6SM BKN035=



000
FTUS41 KILN 201700
TAFCMH
TAF
KCMH 201730Z 2018/2118 03008KT P6SM SCT040 BKN120
     FM210100 04008KT P6SM VCSH OVC060
     FM210600 02007KT P6SM VCSH OVC035
     FM211400 01008KT P6SM BKN035=



000
FTUS41 KILN 201700
TAFILN
TAF
KILN 201730Z 2018/2118 04008KT P6SM BKN120
     FM210100 04008KT P6SM VCSH OVC050
     FM210500 02008KT P6SM VCSH OVC028
     FM211400 01008KT P6SM BKN035=



000
FTUS41 KILN 201700
TAFLCK
TAF
KLCK 201730Z 2018/2118 03008KT P6SM SCT040 BKN120
     FM210100 04008KT P6SM VCSH OVC060
     FM210600 02007KT P6SM VCSH OVC035
     FM211400 01008KT P6SM BKN035=



000
FTUS41 KILN 201700
TAFDAY
TAF
KDAY 201730Z 2018/2118 01006KT P6SM BKN120
     FM202300 04008KT P6SM VCSH OVC050
     FM210300 02008KT P6SM VCSH OVC030
     FM211400 36008KT P6SM BKN035=



000
FTUS41 KILN 201500 AAA
TAFCVG
TAF AMD
KCVG 201526Z 2015/2118 03007KT P6SM SCT100 BKN150
     FM210100 03005KT P6SM VCSH BKN040
     FM210600 02004KT P6SM VCSH OVC015
     FM211400 02004KT P6SM OVC035=



000
FTUS41 KILN 201500 AAA
TAFCVG
TAF AMD
KCVG 201526Z 2015/2118 03007KT P6SM SCT100 BKN150
     FM210100 03005KT P6SM VCSH BKN040
     FM210600 02004KT P6SM VCSH OVC015
     FM211400 02004KT P6SM OVC035=



000
FTUS41 KILN 201100
TAFDAY
TAF
KDAY 201120Z 2012/2112 01006KT P6SM SCT100 BKN250
     FM210000 03006KT P6SM VCSH BKN050
     FM210300 04008KT P6SM VCSH BKN030=



000
FTUS41 KILN 201100
TAFLCK
TAF
KLCK 201120Z 2012/2112 01007KT P6SM BKN150
     FM210300 03007KT P6SM VCSH BKN050
     FM210900 02005KT P6SM VCSH BKN035=



000
FTUS41 KILN 201100
TAFILN
TAF
KILN 201120Z 2012/2112 04008KT P6SM SCT100 OVC150
     FM210100 04007KT P6SM VCSH BKN050
     FM210400 04005KT P6SM BKN030=



000
FTUS41 KILN 201100
TAFCMH
TAF
KCMH 201120Z 2012/2112 01007KT P6SM BKN250
     FM210300 03007KT P6SM VCSH BKN050
     FM210900 02005KT P6SM VCSH BKN035=



000
FTUS41 KILN 201100
TAFLUK
TAF
KLUK 201120Z 2012/2112 VRB04KT P6SM SCT100 BKN150
     FM210100 04005KT P6SM VCSH BKN040
     FM210600 03004KT 4SM BR VCSH OVC015=



000
FTUS41 KILN 201100
TAFCVG
TAF
KCVG 201120Z 2012/2118 01007KT P6SM SCT100 BKN150
     FM210100 03005KT P6SM VCSH BKN040
     FM210600 02004KT P6SM VCSH OVC015
     FM211400 02004KT P6SM OVC035=



000
FTUS41 KILN 201100
TAFDAY
TAF
KDAY 201120Z 2012/2112 01006KT P6SM SCT100 BKN250
     FM210000 03006KT P6SM VCSH BKN050
     FM210300 04008KT P6SM VCSH BKN030=



000
FTUS41 KILN 201100
TAFLUK
TAF
KLUK 201120Z 2012/2112 VRB04KT P6SM SCT100 BKN150
     FM210100 04005KT P6SM VCSH BKN040
     FM210600 03004KT 4SM BR VCSH OVC015=



000
FTUS41 KILN 201100
TAFCVG
TAF
KCVG 201120Z 2012/2118 01007KT P6SM SCT100 BKN150
     FM210100 03005KT P6SM VCSH BKN040
     FM210600 02004KT P6SM VCSH OVC015
     FM211400 02004KT P6SM OVC035=



000
FTUS41 KILN 201100
TAFCMH
TAF
KCMH 201120Z 2012/2112 01007KT P6SM BKN250
     FM210300 03007KT P6SM VCSH BKN050
     FM210900 02005KT P6SM VCSH BKN035=



000
FTUS41 KILN 201100
TAFLCK
TAF
KLCK 201120Z 2012/2112 01007KT P6SM BKN150
     FM210300 03007KT P6SM VCSH BKN050
     FM210900 02005KT P6SM VCSH BKN035=



000
FTUS41 KILN 201100
TAFILN
TAF
KILN 201120Z 2012/2112 04008KT P6SM SCT100 OVC150
     FM210100 04007KT P6SM VCSH BKN050
     FM210400 04005KT P6SM BKN030=



000
FTUS41 KILN 201000 AAB
TAFLCK
TAF AMD
KLCK 201005Z 2010/2106 34008KT P6SM BKN030
     FM201100 01007KT P6SM BKN150
     FM210200 03007KT P6SM VCSH BKN050=



000
FTUS41 KILN 200800 AAA
TAFCVG
TAF AMD
KCVG 200856Z 2009/2112 02006KT P6SM BKN250
     FM201200 04007KT P6SM SCT100 BKN150
     FM210100 03005KT P6SM VCSH BKN040
     FM210300 02004KT P6SM VCSH OVC020=



000
FTUS41 KILN 200800 AAB
TAFCMH
TAF AMD
KCMH 200802Z 2008/2106 34008KT P6SM BKN030
     FM201000 01007KT P6SM BKN150
     FM210100 03007KT P6SM VCSH BKN050=



000
FTUS41 KILN 200800 AAB
TAFDAY
TAF AMD
KDAY 200801Z 2008/2106 35009KT P6SM BKN029
     FM201000 01006KT P6SM SCT100 BKN250
     FM210000 04008KT P6SM VCSH BKN050
     FM210300 04006KT P6SM VCSH BKN025=



000
FTUS41 KILN 200500 CCA
TAFLCK
TAF COR
KLCK 200543Z 2006/2106 33008KT P6SM BKN030
     FM200800 01007KT P6SM BKN150
     FM210200 03007KT P6SM VCSH BKN050=



000
FTUS41 KILN 200500 RRA
TAFCVG
TAF
KCVG 200542Z 2006/2112 02006KT P6SM BKN250
     FM201200 04007KT P6SM SCT100 BKN150
     FM210100 03005KT P6SM VCSH BKN040
     FM210300 02004KT P6SM VCSH OVC020=



000
FTUS41 KILN 200500 RRA
TAFCMH
TAF
KCMH 200542Z 2006/2106 33008KT P6SM BKN030
     FM200800 01007KT P6SM BKN150
     FM210100 03007KT P6SM VCSH BKN050=



000
FTUS41 KILN 200500 RRA
TAFLCK
TAF
KLCK 200542Z 2006/2106 33008KT P6SM BKN035
     FM200800 01007KT P6SM BKN150
     FM210200 03007KT P6SM VCSH BKN050=



000
FTUS41 KILN 200500 RRA
TAFDAY
TAF
KDAY 200542Z 2006/2106 35008KT P6SM BKN029
     FM200800 01006KT P6SM SCT100 BKN250
     FM210000 04008KT P6SM VCSH BKN050
     FM210300 04006KT P6SM VCSH BKN025=



000
FTUS41 KILN 200500 RRA
TAFLUK
TAF
KLUK 200542Z 2006/2106 02005KT P6SM BKN250
     FM201200 04007KT P6SM SCT080 BKN150
     FM210100 03005KT P6SM VCSH BKN040
     FM210300 02004KT 4SM BR VCSH OVC015=



000
FTUS41 KILN 200500 RRA
TAFILN
TAF
KILN 200542Z 2006/2106 01006KT P6SM BKN250
     FM201200 04008KT P6SM SCT100 OVC150
     FM210100 04007KT P6SM VCSH BKN050
     FM210400 04005KT P6SM BKN030=



000
FTUS41 KILN 200500 AAA
TAFLCK
TAF AMD
KLCK 200522Z 2005/2024 33008KT P6SM OVC030
     FM200800 35006KT P6SM BKN250
     FM201200 01007KT P6SM BKN150
     FM202000 03007KT P6SM BKN100 OVC150=



000
FTUS41 KILN 200500 AAA
TAFLCK
TAF AMD
KLCK 200522Z 2005/2024 33008KT P6SM OVC030
     FM200800 35006KT P6SM BKN250
     FM201200 01007KT P6SM BKN150
     FM202000 03007KT P6SM BKN100 OVC150=



000
FTUS41 KILN 200500 AAA
TAFCMH
TAF AMD
KCMH 200522Z 2005/2024 33008KT P6SM BKN030
     FM200800 35006KT P6SM BKN250
     FM201200 01007KT P6SM BKN150
     FM202000 03007KT P6SM BKN100 OVC150=



000
FTUS41 KILN 200500 AAA
TAFDAY
TAF AMD
KDAY 200521Z 2005/2024 35008KT P6SM BKN029
     FM200700 01006KT P6SM BKN250
     FM201000 03006KT P6SM BKN150
     FM201800 04008KT P6SM BKN100 OVC150=



    US Dept of Commerce
    National Oceanic and Atmospheric Administration
    National Weather Service
    1325 East West Highway
    Silver Spring, MD 20910
    Page Author: NWS Internet Services Team
Disclaimer
Information Quality
Credits
Glossary
Privacy Policy
Freedom of Information Act (FOIA)
About Us
Career Opportunities